createdAt,value
2018-12-23T00:00:03.448Z,6.6
2018-12-23T00:15:02.736Z,6.6
2018-12-23T00:30:03.084Z,6.6
2018-12-23T00:45:03.344Z,6.7
2018-12-23T01:00:02.722Z,6.7
2018-12-23T01:15:03.058Z,6.6
2018-12-23T01:30:02.753Z,6.5
2018-12-23T01:45:02.965Z,6.4
2018-12-23T02:00:03.265Z,6.4
2018-12-23T02:15:02.624Z,6.4
2018-12-23T02:30:03.087Z,6.4
2018-12-23T02:45:03.443Z,6.3
2018-12-23T03:00:02.981Z,6.2
2018-12-23T03:15:03.290Z,6.2
2018-12-23T03:30:02.668Z,6.2
2018-12-23T03:45:03.167Z,6.2
2018-12-23T04:00:02.498Z,6.2
2018-12-23T04:15:02.828Z,6.2
2018-12-23T04:30:02.424Z,6.4
2018-12-23T04:45:02.622Z,6.4
2018-12-23T05:00:03.229Z,6.4
2018-12-23T05:15:02.490Z,6.3
2018-12-23T05:30:02.802Z,6.2
2018-12-23T05:45:03.203Z,6.1
2018-12-23T06:00:02.524Z,6.1
2018-12-23T06:15:02.875Z,6
2018-12-23T06:30:03.393Z,5.9
2018-12-23T06:45:02.659Z,6
2018-12-23T07:00:03.239Z,6
2018-12-23T07:15:02.501Z,5.9
2018-12-23T07:30:02.840Z,5.9
2018-12-23T07:45:03.200Z,5.9
2018-12-23T08:00:02.487Z,6.1
2018-12-23T08:15:02.795Z,6.2
2018-12-23T08:30:03.320Z,6.3
2018-12-23T08:45:02.653Z,6.5
2018-12-23T09:00:03.057Z,6.6
2018-12-23T09:15:03.302Z,6.6
2018-12-23T09:30:02.647Z,6.8
2018-12-23T09:45:03.169Z,6.9
2018-12-23T10:00:02.495Z,7.1
2018-12-23T10:15:02.843Z,7.2
2018-12-23T10:30:03.196Z,7.5
2018-12-23T10:45:02.696Z,7.8
2018-12-23T11:00:03.104Z,8
2018-12-23T11:15:03.336Z,8.1
2018-12-23T11:30:02.962Z,8.2
2018-12-23T11:45:03.436Z,8.5
2018-12-23T12:00:02.721Z,8.4
2018-12-23T12:15:02.919Z,8.6
2018-12-23T12:30:02.449Z,8.7
2018-12-23T12:45:02.977Z,8.8
2018-12-23T13:00:02.511Z,8.7
2018-12-23T13:15:02.817Z,8.7
2018-12-23T13:30:03.224Z,8.6
2018-12-23T13:45:02.407Z,8.5
2018-12-23T14:00:02.740Z,8.4
2018-12-23T14:15:03.005Z,8.1
2018-12-23T14:30:02.496Z,8.1
2018-12-23T14:45:02.803Z,7.8
2018-12-23T15:00:03.200Z,7.6
2018-12-23T15:15:02.486Z,7.2
2018-12-23T15:30:02.926Z,6.9
2018-12-23T15:45:03.209Z,6.7
2018-12-23T16:00:02.464Z,6.7
2018-12-23T16:15:02.805Z,6.6
2018-12-23T16:30:03.210Z,6.6
2018-12-23T16:45:02.651Z,6.4
2018-12-23T17:00:03.055Z,6.4
2018-12-23T17:15:03.335Z,6.4
2018-12-23T17:30:02.688Z,6.1
2018-12-23T17:45:03.057Z,6.1
2018-12-23T18:00:03.319Z,6.1
2018-12-23T18:15:02.654Z,6.2
2018-12-23T18:30:03.846Z,6.1
2018-12-23T18:45:03.200Z,6.2
2018-12-23T19:00:02.510Z,6.1
2018-12-23T19:15:02.833Z,6.1
2018-12-23T19:30:03.291Z,6.4
2018-12-23T19:45:02.569Z,6.5
2018-12-23T20:00:02.904Z,6.7
2018-12-23T20:15:03.192Z,7.1
2018-12-23T20:30:02.731Z,7.4
2018-12-23T20:45:03.042Z,8.3
2018-12-23T21:00:03.325Z,8.6
2018-12-23T21:15:02.647Z,8.7
2018-12-23T21:30:03.054Z,8.9
2018-12-23T21:45:03.240Z,9.2
2018-12-23T22:00:02.481Z,9.2
2018-12-23T22:15:02.771Z,9.6
2018-12-23T22:30:03.201Z,9.6
2018-12-23T22:45:02.493Z,9.8
2018-12-23T23:00:02.805Z,9.7
2018-12-23T23:15:03.080Z,9.8
2018-12-23T23:30:02.457Z,9.9
2018-12-23T23:45:02.925Z,10.1
